sensor_id;sensor_type;location;lat;lon;timestamp;P1;durP1;ratioP1;P2;durP2;ratioP2
6282;SDS011;3174;53.486;9.568;2022-08-27T00:01:40;9.17;;;3.80;;
6282;SDS011;3174;53.486;9.568;2022-08-27T00:04:08;5.87;;;2.87;;
6282;SDS011;3174;53.486;9.568;2022-08-27T00:06:36;6.00;;;3.27;;
6282;SDS011;3174;53.486;9.568;2022-08-27T00:09:05;8.20;;;3.53;;
6282;SDS011;3174;53.486;9.568;2022-08-27T00:11:33;6.17;;;2.60;;
6282;SDS011;3174;53.486;9.568;2022-08-27T00:14:02;8.00;;;3.37;;
6282;SDS011;3174;53.486;9.568;2022-08-27T00:16:31;8.10;;;3.53;;
6282;SDS011;3174;53.486;9.568;2022-08-27T00:19:00;7.47;;;2.80;;
6282;SDS011;3174;53.486;9.568;2022-08-27T00:21:29;7.00;;;3.00;;
6282;SDS011;3174;53.486;9.568;2022-08-27T00:23:59;7.40;;;3.20;;
6282;SDS011;3174;53.486;9.568;2022-08-27T00:26:27;8.43;;;3.70;;
6282;SDS011;3174;53.486;9.568;2022-08-27T00:28:55;5.00;;;3.00;;
6282;SDS011;3174;53.486;9.568;2022-08-27T00:31:23;9.30;;;3.60;;
6282;SDS011;3174;53.486;9.568;2022-08-27T00:33:53;5.97;;;3.17;;
6282;SDS011;3174;53.486;9.568;2022-08-27T00:36:22;5.10;;;3.00;;
6282;SDS011;3174;53.486;9.568;2022-08-27T00:38:51;7.47;;;2.87;;
6282;SDS011;3174;53.486;9.568;2022-08-27T00:41:19;6.43;;;3.07;;
6282;SDS011;3174;53.486;9.568;2022-08-27T00:43:49;7.10;;;3.00;;
6282;SDS011;3174;53.486;9.568;2022-08-27T00:46:22;3.67;;;2.50;;
6282;SDS011;3174;53.486;9.568;2022-08-27T00:48:53;4.93;;;2.47;;
6282;SDS011;3174;53.486;9.568;2022-08-27T00:51:31;8.33;;;3.60;;
6282;SDS011;3174;53.486;9.568;2022-08-27T00:53:59;8.37;;;3.40;;
6282;SDS011;3174;53.486;9.568;2022-08-27T00:56:28;7.73;;;2.87;;
6282;SDS011;3174;53.486;9.568;2022-08-27T00:59:00;4.97;;;2.90;;
6282;SDS011;3174;53.486;9.568;2022-08-27T01:01:29;7.97;;;2.53;;
6282;SDS011;3174;53.486;9.568;2022-08-27T01:04:02;5.47;;;2.87;;
6282;SDS011;3174;53.486;9.568;2022-08-27T01:06:35;4.70;;;2.60;;
6282;SDS011;3174;53.486;9.568;2022-08-27T01:09:07;7.07;;;2.47;;
6282;SDS011;3174;53.486;9.568;2022-08-27T01:11:36;9.03;;;2.83;;
6282;SDS011;3174;53.486;9.568;2022-08-27T01:14:05;5.60;;;2.80;;
6282;SDS011;3174;53.486;9.568;2022-08-27T01:16:34;5.57;;;2.40;;
6282;SDS011;3174;53.486;9.568;2022-08-27T01:19:06;5.27;;;2.70;;
6282;SDS011;3174;53.486;9.568;2022-08-27T01:21:40;5.47;;;2.40;;
6282;SDS011;3174;53.486;9.568;2022-08-27T01:24:21;3.37;;;1.90;;
6282;SDS011;3174;53.486;9.568;2022-08-27T01:26:53;5.93;;;2.70;;
6282;SDS011;3174;53.486;9.568;2022-08-27T01:29:22;5.43;;;2.27;;
6282;SDS011;3174;53.486;9.568;2022-08-27T01:31:50;4.43;;;2.40;;
6282;SDS011;3174;53.486;9.568;2022-08-27T01:34:19;3.27;;;2.40;;
6282;SDS011;3174;53.486;9.568;2022-08-27T01:36:47;3.47;;;2.50;;
6282;SDS011;3174;53.486;9.568;2022-08-27T01:39:21;4.90;;;2.37;;
6282;SDS011;3174;53.486;9.568;2022-08-27T01:41:49;8.27;;;2.70;;
6282;SDS011;3174;53.486;9.568;2022-08-27T01:44:18;6.90;;;2.63;;
6282;SDS011;3174;53.486;9.568;2022-08-27T01:46:46;7.20;;;2.50;;
6282;SDS011;3174;53.486;9.568;2022-08-27T01:49:14;4.40;;;2.63;;
6282;SDS011;3174;53.486;9.568;2022-08-27T01:51:42;7.33;;;2.60;;
6282;SDS011;3174;53.486;9.568;2022-08-27T01:54:10;5.57;;;3.17;;
6282;SDS011;3174;53.486;9.568;2022-08-27T01:56:40;7.30;;;2.37;;
6282;SDS011;3174;53.486;9.568;2022-08-27T01:59:08;4.93;;;1.90;;
6282;SDS011;3174;53.486;9.568;2022-08-27T02:01:37;6.47;;;2.80;;
6282;SDS011;3174;53.486;9.568;2022-08-27T02:04:05;5.93;;;2.63;;
6282;SDS011;3174;53.486;9.568;2022-08-27T02:06:33;10.57;;;3.03;;
6282;SDS011;3174;53.486;9.568;2022-08-27T02:09:02;7.10;;;2.50;;
6282;SDS011;3174;53.486;9.568;2022-08-27T02:11:30;7.70;;;2.73;;
6282;SDS011;3174;53.486;9.568;2022-08-27T02:14:11;5.13;;;2.80;;
6282;SDS011;3174;53.486;9.568;2022-08-27T02:16:39;6.47;;;2.90;;
6282;SDS011;3174;53.486;9.568;2022-08-27T02:19:18;7.63;;;2.70;;
6282;SDS011;3174;53.486;9.568;2022-08-27T02:21:47;10.67;;;3.20;;
6282;SDS011;3174;53.486;9.568;2022-08-27T02:24:16;3.40;;;2.47;;
6282;SDS011;3174;53.486;9.568;2022-08-27T02:26:44;6.70;;;2.67;;
6282;SDS011;3174;53.486;9.568;2022-08-27T02:29:13;6.50;;;2.57;;
6282;SDS011;3174;53.486;9.568;2022-08-27T02:31:42;6.70;;;3.00;;
6282;SDS011;3174;53.486;9.568;2022-08-27T02:34:10;6.57;;;2.77;;
6282;SDS011;3174;53.486;9.568;2022-08-27T02:36:38;11.33;;;3.17;;
6282;SDS011;3174;53.486;9.568;2022-08-27T02:39:06;8.83;;;3.93;;
6282;SDS011;3174;53.486;9.568;2022-08-27T02:41:35;7.00;;;3.37;;
6282;SDS011;3174;53.486;9.568;2022-08-27T02:44:03;4.67;;;2.80;;
6282;SDS011;3174;53.486;9.568;2022-08-27T02:46:37;4.70;;;2.60;;
6282;SDS011;3174;53.486;9.568;2022-08-27T02:49:06;8.43;;;2.90;;
6282;SDS011;3174;53.486;9.568;2022-08-27T02:51:35;6.20;;;2.83;;
6282;SDS011;3174;53.486;9.568;2022-08-27T02:54:04;11.10;;;4.07;;
6282;SDS011;3174;53.486;9.568;2022-08-27T02:56:35;10.57;;;3.47;;
6282;SDS011;3174;53.486;9.568;2022-08-27T02:59:03;7.60;;;3.20;;
6282;SDS011;3174;53.486;9.568;2022-08-27T03:01:34;6.70;;;3.40;;
6282;SDS011;3174;53.486;9.568;2022-08-27T03:04:03;7.83;;;3.60;;
6282;SDS011;3174;53.486;9.568;2022-08-27T03:06:31;8.97;;;3.47;;
6282;SDS011;3174;53.486;9.568;2022-08-27T03:09:00;15.27;;;3.80;;
6282;SDS011;3174;53.486;9.568;2022-08-27T03:11:30;8.07;;;3.40;;
6282;SDS011;3174;53.486;9.568;2022-08-27T03:13:59;7.97;;;3.93;;
6282;SDS011;3174;53.486;9.568;2022-08-27T03:16:27;7.57;;;3.60;;
6282;SDS011;3174;53.486;9.568;2022-08-27T03:18:55;6.40;;;3.10;;
6282;SDS011;3174;53.486;9.568;2022-08-27T03:21:24;6.97;;;3.10;;
6282;SDS011;3174;53.486;9.568;2022-08-27T03:23:52;8.27;;;3.13;;
6282;SDS011;3174;53.486;9.568;2022-08-27T03:26:20;3.67;;;2.33;;
6282;SDS011;3174;53.486;9.568;2022-08-27T03:28:48;7.60;;;3.50;;
6282;SDS011;3174;53.486;9.568;2022-08-27T03:31:18;4.63;;;3.03;;
6282;SDS011;3174;53.486;9.568;2022-08-27T03:33:53;11.40;;;3.70;;
6282;SDS011;3174;53.486;9.568;2022-08-27T03:36:23;7.10;;;2.77;;
6282;SDS011;3174;53.486;9.568;2022-08-27T03:38:52;7.73;;;3.87;;
6282;SDS011;3174;53.486;9.568;2022-08-27T03:41:20;9.87;;;4.03;;
6282;SDS011;3174;53.486;9.568;2022-08-27T03:44:09;9.03;;;3.70;;
6282;SDS011;3174;53.486;9.568;2022-08-27T03:46:46;6.57;;;4.23;;
6282;SDS011;3174;53.486;9.568;2022-08-27T03:49:15;11.13;;;3.90;;
6282;SDS011;3174;53.486;9.568;2022-08-27T03:51:48;8.73;;;3.60;;
6282;SDS011;3174;53.486;9.568;2022-08-27T03:54:17;7.87;;;4.30;;
6282;SDS011;3174;53.486;9.568;2022-08-27T03:56:45;9.00;;;4.93;;
6282;SDS011;3174;53.486;9.568;2022-08-27T03:59:13;13.20;;;5.17;;
6282;SDS011;3174;53.486;9.568;2022-08-27T04:01:41;11.83;;;4.80;;
6282;SDS011;3174;53.486;9.568;2022-08-27T04:04:10;5.80;;;3.10;;
6282;SDS011;3174;53.486;9.568;2022-08-27T04:06:39;8.03;;;4.50;;
6282;SDS011;3174;53.486;9.568;2022-08-27T04:09:09;7.27;;;4.77;;
6282;SDS011;3174;53.486;9.568;2022-08-27T04:11:38;11.80;;;4.80;;
6282;SDS011;3174;53.486;9.568;2022-08-27T04:14:06;7.93;;;4.30;;
6282;SDS011;3174;53.486;9.568;2022-08-27T04:16:52;8.37;;;4.37;;
6282;SDS011;3174;53.486;9.568;2022-08-27T04:19:22;10.90;;;5.17;;
6282;SDS011;3174;53.486;9.568;2022-08-27T04:21:53;6.33;;;3.67;;
6282;SDS011;3174;53.486;9.568;2022-08-27T04:24:27;11.60;;;5.50;;
6282;SDS011;3174;53.486;9.568;2022-08-27T04:26:55;15.97;;;4.57;;
6282;SDS011;3174;53.486;9.568;2022-08-27T04:29:24;13.17;;;4.70;;
6282;SDS011;3174;53.486;9.568;2022-08-27T04:31:52;14.33;;;5.57;;
6282;SDS011;3174;53.486;9.568;2022-08-27T04:34:20;12.03;;;5.13;;
6282;SDS011;3174;53.486;9.568;2022-08-27T04:36:48;12.03;;;5.10;;
6282;SDS011;3174;53.486;9.568;2022-08-27T04:39:16;8.40;;;4.13;;
6282;SDS011;3174;53.486;9.568;2022-08-27T04:41:48;8.27;;;3.90;;
6282;SDS011;3174;53.486;9.568;2022-08-27T04:44:17;7.03;;;3.93;;
6282;SDS011;3174;53.486;9.568;2022-08-27T04:46:45;7.67;;;4.33;;
6282;SDS011;3174;53.486;9.568;2022-08-27T04:49:15;6.73;;;4.13;;
6282;SDS011;3174;53.486;9.568;2022-08-27T04:51:45;8.77;;;3.70;;
6282;SDS011;3174;53.486;9.568;2022-08-27T04:54:16;5.53;;;3.43;;
6282;SDS011;3174;53.486;9.568;2022-08-27T04:56:52;7.67;;;3.97;;
6282;SDS011;3174;53.486;9.568;2022-08-27T04:59:22;7.80;;;3.50;;
6282;SDS011;3174;53.486;9.568;2022-08-27T05:01:50;6.17;;;3.00;;
6282;SDS011;3174;53.486;9.568;2022-08-27T05:04:18;5.37;;;3.30;;
6282;SDS011;3174;53.486;9.568;2022-08-27T05:06:46;7.03;;;3.07;;
6282;SDS011;3174;53.486;9.568;2022-08-27T05:09:19;6.63;;;2.90;;
6282;SDS011;3174;53.486;9.568;2022-08-27T05:11:53;7.57;;;2.97;;
6282;SDS011;3174;53.486;9.568;2022-08-27T05:14:22;7.27;;;2.73;;
6282;SDS011;3174;53.486;9.568;2022-08-27T05:16:55;9.50;;;2.47;;
6282;SDS011;3174;53.486;9.568;2022-08-27T05:19:23;5.60;;;2.50;;
6282;SDS011;3174;53.486;9.568;2022-08-27T05:21:52;10.00;;;2.63;;
6282;SDS011;3174;53.486;9.568;2022-08-27T05:24:20;6.80;;;2.30;;
6282;SDS011;3174;53.486;9.568;2022-08-27T05:26:49;7.27;;;2.73;;
6282;SDS011;3174;53.486;9.568;2022-08-27T05:29:19;4.90;;;2.30;;
6282;SDS011;3174;53.486;9.568;2022-08-27T05:31:47;4.73;;;2.40;;
6282;SDS011;3174;53.486;9.568;2022-08-27T05:34:15;7.00;;;2.60;;
6282;SDS011;3174;53.486;9.568;2022-08-27T05:36:50;4.03;;;2.33;;
6282;SDS011;3174;53.486;9.568;2022-08-27T05:39:18;3.73;;;2.10;;
6282;SDS011;3174;53.486;9.568;2022-08-27T05:41:46;4.10;;;2.40;;
6282;SDS011;3174;53.486;9.568;2022-08-27T05:44:14;4.20;;;1.80;;
6282;SDS011;3174;53.486;9.568;2022-08-27T05:47:04;5.23;;;2.50;;
6282;SDS011;3174;53.486;9.568;2022-08-27T05:49:32;6.90;;;2.27;;
6282;SDS011;3174;53.486;9.568;2022-08-27T05:52:00;3.60;;;2.00;;
6282;SDS011;3174;53.486;9.568;2022-08-27T05:54:28;5.23;;;2.30;;
6282;SDS011;3174;53.486;9.568;2022-08-27T05:56:56;6.97;;;2.23;;
6282;SDS011;3174;53.486;9.568;2022-08-27T05:59:24;4.87;;;2.53;;
6282;SDS011;3174;53.486;9.568;2022-08-27T06:02:23;4.67;;;2.20;;
6282;SDS011;3174;53.486;9.568;2022-08-27T06:04:51;5.20;;;2.60;;
6282;SDS011;3174;53.486;9.568;2022-08-27T06:07:20;8.50;;;3.40;;
6282;SDS011;3174;53.486;9.568;2022-08-27T06:09:48;9.70;;;3.20;;
6282;SDS011;3174;53.486;9.568;2022-08-27T06:12:16;4.87;;;3.33;;
6282;SDS011;3174;53.486;9.568;2022-08-27T06:14:52;6.23;;;2.60;;
6282;SDS011;3174;53.486;9.568;2022-08-27T06:17:20;4.93;;;2.40;;
6282;SDS011;3174;53.486;9.568;2022-08-27T06:19:49;5.97;;;2.70;;
6282;SDS011;3174;53.486;9.568;2022-08-27T06:22:17;3.33;;;2.63;;
6282;SDS011;3174;53.486;9.568;2022-08-27T06:24:46;5.93;;;2.60;;
6282;SDS011;3174;53.486;9.568;2022-08-27T06:27:15;4.07;;;2.77;;
6282;SDS011;3174;53.486;9.568;2022-08-27T06:29:44;5.10;;;2.53;;
6282;SDS011;3174;53.486;9.568;2022-08-27T06:32:12;3.53;;;2.93;;
6282;SDS011;3174;53.486;9.568;2022-08-27T06:34:41;5.70;;;2.40;;
6282;SDS011;3174;53.486;9.568;2022-08-27T06:37:10;4.63;;;2.60;;
6282;SDS011;3174;53.486;9.568;2022-08-27T06:39:38;6.03;;;2.27;;
6282;SDS011;3174;53.486;9.568;2022-08-27T06:42:08;7.07;;;3.67;;
6282;SDS011;3174;53.486;9.568;2022-08-27T06:44:37;3.30;;;2.53;;
6282;SDS011;3174;53.486;9.568;2022-08-27T06:47:05;3.83;;;2.83;;
6282;SDS011;3174;53.486;9.568;2022-08-27T06:49:33;5.13;;;3.17;;
6282;SDS011;3174;53.486;9.568;2022-08-27T06:52:01;5.37;;;2.83;;
6282;SDS011;3174;53.486;9.568;2022-08-27T06:54:33;5.10;;;2.80;;
6282;SDS011;3174;53.486;9.568;2022-08-27T06:57:01;8.27;;;3.00;;
6282;SDS011;3174;53.486;9.568;2022-08-27T06:59:29;3.47;;;2.70;;
6282;SDS011;3174;53.486;9.568;2022-08-27T07:01:58;5.47;;;2.93;;
6282;SDS011;3174;53.486;9.568;2022-08-27T07:04:26;5.17;;;3.20;;
6282;SDS011;3174;53.486;9.568;2022-08-27T07:06:58;5.40;;;2.90;;
6282;SDS011;3174;53.486;9.568;2022-08-27T07:09:26;5.70;;;2.77;;
6282;SDS011;3174;53.486;9.568;2022-08-27T07:11:58;2.83;;;2.33;;
6282;SDS011;3174;53.486;9.568;2022-08-27T07:14:27;5.10;;;2.70;;
6282;SDS011;3174;53.486;9.568;2022-08-27T07:17:03;4.50;;;2.70;;
6282;SDS011;3174;53.486;9.568;2022-08-27T07:19:34;3.63;;;3.10;;
6282;SDS011;3174;53.486;9.568;2022-08-27T07:22:06;10.57;;;3.67;;
6282;SDS011;3174;53.486;9.568;2022-08-27T07:24:34;5.43;;;3.80;;
6282;SDS011;3174;53.486;9.568;2022-08-27T07:27:04;5.67;;;3.67;;
6282;SDS011;3174;53.486;9.568;2022-08-27T07:29:33;3.53;;;3.03;;
6282;SDS011;3174;53.486;9.568;2022-08-27T07:32:01;9.60;;;3.50;;
6282;SDS011;3174;53.486;9.568;2022-08-27T07:34:29;6.90;;;3.20;;
6282;SDS011;3174;53.486;9.568;2022-08-27T07:36:57;6.87;;;3.37;;
6282;SDS011;3174;53.486;9.568;2022-08-27T07:39:25;5.33;;;2.93;;
6282;SDS011;3174;53.486;9.568;2022-08-27T07:41:54;6.77;;;2.80;;
6282;SDS011;3174;53.486;9.568;2022-08-27T07:44:42;5.13;;;2.77;;
6282;SDS011;3174;53.486;9.568;2022-08-27T07:47:10;6.17;;;2.50;;
6282;SDS011;3174;53.486;9.568;2022-08-27T07:49:38;3.87;;;2.50;;
6282;SDS011;3174;53.486;9.568;2022-08-27T07:52:06;2.93;;;2.03;;
6282;SDS011;3174;53.486;9.568;2022-08-27T07:54:34;5.73;;;2.37;;
6282;SDS011;3174;53.486;9.568;2022-08-27T07:57:03;3.07;;;2.00;;
6282;SDS011;3174;53.486;9.568;2022-08-27T07:59:31;7.70;;;2.33;;
6282;SDS011;3174;53.486;9.568;2022-08-27T08:02:00;2.87;;;2.13;;
6282;SDS011;3174;53.486;9.568;2022-08-27T08:04:29;7.33;;;2.50;;
6282;SDS011;3174;53.486;9.568;2022-08-27T08:06:58;3.33;;;2.33;;
6282;SDS011;3174;53.486;9.568;2022-08-27T08:09:26;4.00;;;2.40;;
6282;SDS011;3174;53.486;9.568;2022-08-27T08:11:56;6.50;;;2.93;;
6282;SDS011;3174;53.486;9.568;2022-08-27T08:14:24;5.53;;;2.20;;
6282;SDS011;3174;53.486;9.568;2022-08-27T08:16:52;6.50;;;3.00;;
6282;SDS011;3174;53.486;9.568;2022-08-27T08:19:22;3.50;;;2.43;;
6282;SDS011;3174;53.486;9.568;2022-08-27T08:21:50;4.43;;;2.73;;
6282;SDS011;3174;53.486;9.568;2022-08-27T08:24:26;4.07;;;3.13;;
6282;SDS011;3174;53.486;9.568;2022-08-27T08:26:54;4.57;;;3.37;;
6282;SDS011;3174;53.486;9.568;2022-08-27T08:29:30;4.27;;;3.00;;
6282;SDS011;3174;53.486;9.568;2022-08-27T08:32:00;5.23;;;3.10;;
6282;SDS011;3174;53.486;9.568;2022-08-27T08:34:29;8.57;;;4.10;;
6282;SDS011;3174;53.486;9.568;2022-08-27T08:36:57;6.97;;;4.30;;
6282;SDS011;3174;53.486;9.568;2022-08-27T08:39:25;6.27;;;3.53;;
6282;SDS011;3174;53.486;9.568;2022-08-27T08:41:54;5.20;;;4.03;;
6282;SDS011;3174;53.486;9.568;2022-08-27T08:44:25;9.97;;;6.73;;
6282;SDS011;3174;53.486;9.568;2022-08-27T08:47:01;7.33;;;4.33;;
6282;SDS011;3174;53.486;9.568;2022-08-27T08:49:40;5.63;;;4.90;;
6282;SDS011;3174;53.486;9.568;2022-08-27T08:52:24;7.63;;;5.10;;
6282;SDS011;3174;53.486;9.568;2022-08-27T08:54:58;8.27;;;5.10;;
6282;SDS011;3174;53.486;9.568;2022-08-27T08:57:31;7.67;;;5.00;;
6282;SDS011;3174;53.486;9.568;2022-08-27T09:00:03;6.77;;;4.80;;
6282;SDS011;3174;53.486;9.568;2022-08-27T09:02:37;7.97;;;5.13;;
6282;SDS011;3174;53.486;9.568;2022-08-27T09:05:08;4.73;;;4.00;;
6282;SDS011;3174;53.486;9.568;2022-08-27T09:07:39;6.07;;;4.47;;
6282;SDS011;3174;53.486;9.568;2022-08-27T09:10:13;4.47;;;3.73;;
6282;SDS011;3174;53.486;9.568;2022-08-27T09:12:45;8.03;;;4.87;;
6282;SDS011;3174;53.486;9.568;2022-08-27T09:15:13;5.10;;;4.20;;
6282;SDS011;3174;53.486;9.568;2022-08-27T09:17:43;8.07;;;4.57;;
6282;SDS011;3174;53.486;9.568;2022-08-27T09:20:16;6.53;;;3.97;;
6282;SDS011;3174;53.486;9.568;2022-08-27T09:22:52;5.87;;;4.33;;
6282;SDS011;3174;53.486;9.568;2022-08-27T09:25:26;6.33;;;3.87;;
6282;SDS011;3174;53.486;9.568;2022-08-27T09:27:56;8.57;;;4.00;;
6282;SDS011;3174;53.486;9.568;2022-08-27T09:30:26;8.37;;;3.23;;
6282;SDS011;3174;53.486;9.568;2022-08-27T09:32:57;12.97;;;3.60;;
6282;SDS011;3174;53.486;9.568;2022-08-27T09:35:33;7.63;;;3.40;;
6282;SDS011;3174;53.486;9.568;2022-08-27T09:38:04;6.93;;;3.70;;
6282;SDS011;3174;53.486;9.568;2022-08-27T09:40:39;9.83;;;3.37;;
6282;SDS011;3174;53.486;9.568;2022-08-27T09:43:18;7.53;;;3.30;;
6282;SDS011;3174;53.486;9.568;2022-08-27T09:45:49;5.80;;;3.20;;
6282;SDS011;3174;53.486;9.568;2022-08-27T09:48:19;6.53;;;2.93;;
6282;SDS011;3174;53.486;9.568;2022-08-27T09:50:51;8.20;;;3.23;;
6282;SDS011;3174;53.486;9.568;2022-08-27T09:53:22;8.53;;;3.10;;
6282;SDS011;3174;53.486;9.568;2022-08-27T09:55:53;7.77;;;2.87;;
6282;SDS011;3174;53.486;9.568;2022-08-27T09:58:22;5.77;;;2.80;;
6282;SDS011;3174;53.486;9.568;2022-08-27T10:00:57;8.00;;;2.97;;
6282;SDS011;3174;53.486;9.568;2022-08-27T10:03:27;7.53;;;3.40;;
6282;SDS011;3174;53.486;9.568;2022-08-27T10:06:00;7.60;;;2.77;;
6282;SDS011;3174;53.486;9.568;2022-08-27T10:08:32;7.63;;;3.20;;
6282;SDS011;3174;53.486;9.568;2022-08-27T10:11:05;6.27;;;2.83;;
6282;SDS011;3174;53.486;9.568;2022-08-27T10:13:39;6.47;;;2.87;;
6282;SDS011;3174;53.486;9.568;2022-08-27T10:19:12;5.77;;;3.40;;
6282;SDS011;3174;53.486;9.568;2022-08-27T10:21:52;10.40;;;4.17;;
6282;SDS011;3174;53.486;9.568;2022-08-27T10:24:23;15.33;;;5.57;;
6282;SDS011;3174;53.486;9.568;2022-08-27T10:27:00;7.77;;;4.23;;
6282;SDS011;3174;53.486;9.568;2022-08-27T10:29:37;7.07;;;4.63;;
6282;SDS011;3174;53.486;9.568;2022-08-27T10:32:11;8.63;;;3.37;;
6282;SDS011;3174;53.486;9.568;2022-08-27T10:34:54;7.27;;;3.87;;
6282;SDS011;3174;53.486;9.568;2022-08-27T10:37:31;8.23;;;3.33;;
6282;SDS011;3174;53.486;9.568;2022-08-27T10:40:08;10.73;;;3.53;;
6282;SDS011;3174;53.486;9.568;2022-08-27T10:42:41;7.50;;;3.03;;
6282;SDS011;3174;53.486;9.568;2022-08-27T10:45:21;7.33;;;3.17;;
6282;SDS011;3174;53.486;9.568;2022-08-27T10:48:02;5.93;;;2.90;;
6282;SDS011;3174;53.486;9.568;2022-08-27T10:50:36;8.37;;;2.83;;
6282;SDS011;3174;53.486;9.568;2022-08-27T10:53:10;9.50;;;2.40;;
6282;SDS011;3174;53.486;9.568;2022-08-27T10:55:50;4.90;;;1.90;;
6282;SDS011;3174;53.486;9.568;2022-08-27T10:58:25;5.07;;;2.33;;
6282;SDS011;3174;53.486;9.568;2022-08-27T11:01:02;7.10;;;2.00;;
6282;SDS011;3174;53.486;9.568;2022-08-27T11:03:35;4.23;;;1.90;;
6282;SDS011;3174;53.486;9.568;2022-08-27T11:06:09;8.93;;;2.40;;
6282;SDS011;3174;53.486;9.568;2022-08-27T11:08:43;5.47;;;2.00;;
6282;SDS011;3174;53.486;9.568;2022-08-27T11:11:18;4.20;;;1.97;;
6282;SDS011;3174;53.486;9.568;2022-08-27T11:14:15;9.53;;;1.90;;
6282;SDS011;3174;53.486;9.568;2022-08-27T11:16:56;5.57;;;1.53;;
6282;SDS011;3174;53.486;9.568;2022-08-27T11:19:30;4.80;;;1.70;;
6282;SDS011;3174;53.486;9.568;2022-08-27T11:22:05;6.80;;;1.80;;
6282;SDS011;3174;53.486;9.568;2022-08-27T11:24:49;3.30;;;1.60;;
6282;SDS011;3174;53.486;9.568;2022-08-27T11:27:20;6.63;;;1.57;;
6282;SDS011;3174;53.486;9.568;2022-08-27T11:29:50;6.73;;;1.70;;
6282;SDS011;3174;53.486;9.568;2022-08-27T11:32:26;4.10;;;1.63;;
6282;SDS011;3174;53.486;9.568;2022-08-27T11:34:59;5.67;;;1.87;;
6282;SDS011;3174;53.486;9.568;2022-08-27T11:37:33;5.17;;;1.57;;
6282;SDS011;3174;53.486;9.568;2022-08-27T11:40:14;6.93;;;1.97;;
6282;SDS011;3174;53.486;9.568;2022-08-27T11:42:51;7.37;;;1.80;;
6282;SDS011;3174;53.486;9.568;2022-08-27T11:45:26;5.60;;;1.50;;
6282;SDS011;3174;53.486;9.568;2022-08-27T11:48:01;6.20;;;1.33;;
6282;SDS011;3174;53.486;9.568;2022-08-27T11:50:30;5.97;;;1.70;;
6282;SDS011;3174;53.486;9.568;2022-08-27T11:53:02;2.63;;;1.43;;
6282;SDS011;3174;53.486;9.568;2022-08-27T11:55:34;3.40;;;1.33;;
6282;SDS011;3174;53.486;9.568;2022-08-27T11:58:07;10.63;;;1.87;;
6282;SDS011;3174;53.486;9.568;2022-08-27T12:00:50;1.37;;;1.20;;
6282;SDS011;3174;53.486;9.568;2022-08-27T12:03:24;5.40;;;1.60;;
6282;SDS011;3174;53.486;9.568;2022-08-27T12:06:06;2.13;;;1.13;;
6282;SDS011;3174;53.486;9.568;2022-08-27T12:08:37;12.63;;;1.87;;
6282;SDS011;3174;53.486;9.568;2022-08-27T12:11:15;3.87;;;1.93;;
6282;SDS011;3174;53.486;9.568;2022-08-27T12:13:53;5.32;;;1.70;;
6282;SDS011;3174;53.486;9.568;2022-08-27T12:16:25;4.60;;;1.50;;
6282;SDS011;3174;53.486;9.568;2022-08-27T12:19:00;6.20;;;1.20;;
6282;SDS011;3174;53.486;9.568;2022-08-27T12:21:41;4.10;;;1.30;;
6282;SDS011;3174;53.486;9.568;2022-08-27T12:24:21;5.18;;;1.40;;
6282;SDS011;3174;53.486;9.568;2022-08-27T12:27:26;3.88;;;1.40;;
6282;SDS011;3174;53.486;9.568;2022-08-27T12:30:02;6.72;;;1.48;;
6282;SDS011;3174;53.486;9.568;2022-08-27T12:32:39;3.75;;;1.50;;
6282;SDS011;3174;53.486;9.568;2022-08-27T12:35:11;4.10;;;1.40;;
6282;SDS011;3174;53.486;9.568;2022-08-27T12:37:45;5.90;;;1.50;;
6282;SDS011;3174;53.486;9.568;2022-08-27T12:40:20;8.82;;;1.90;;
6282;SDS011;3174;53.486;9.568;2022-08-27T12:43:02;5.63;;;1.35;;
6282;SDS011;3174;53.486;9.568;2022-08-27T12:45:40;4.25;;;1.30;;
6282;SDS011;3174;53.486;9.568;2022-08-27T12:48:10;3.17;;;1.50;;
6282;SDS011;3174;53.486;9.568;2022-08-27T12:50:39;4.35;;;1.13;;
6282;SDS011;3174;53.486;9.568;2022-08-27T12:56:11;4.53;;;1.42;;
6282;SDS011;3174;53.486;9.568;2022-08-27T12:58:57;4.32;;;1.30;;
6282;SDS011;3174;53.486;9.568;2022-08-27T13:01:43;4.75;;;1.25;;
6282;SDS011;3174;53.486;9.568;2022-08-27T13:04:20;4.03;;;1.15;;
6282;SDS011;3174;53.486;9.568;2022-08-27T13:06:50;6.22;;;1.48;;
6282;SDS011;3174;53.486;9.568;2022-08-27T13:09:24;4.15;;;1.17;;
6282;SDS011;3174;53.486;9.568;2022-08-27T13:11:53;5.63;;;1.35;;
6282;SDS011;3174;53.486;9.568;2022-08-27T13:14:24;5.72;;;1.80;;
6282;SDS011;3174;53.486;9.568;2022-08-27T13:16:55;5.07;;;1.30;;
6282;SDS011;3174;53.486;9.568;2022-08-27T13:19:26;2.95;;;0.93;;
6282;SDS011;3174;53.486;9.568;2022-08-27T13:21:57;4.25;;;1.20;;
6282;SDS011;3174;53.486;9.568;2022-08-27T13:24:27;4.65;;;1.40;;
6282;SDS011;3174;53.486;9.568;2022-08-27T13:26:58;1.98;;;1.25;;
6282;SDS011;3174;53.486;9.568;2022-08-27T13:29:29;5.70;;;1.40;;
6282;SDS011;3174;53.486;9.568;2022-08-27T13:31:58;3.45;;;1.50;;
6282;SDS011;3174;53.486;9.568;2022-08-27T13:34:27;3.38;;;1.40;;
6282;SDS011;3174;53.486;9.568;2022-08-27T13:37:04;3.78;;;1.30;;
6282;SDS011;3174;53.486;9.568;2022-08-27T13:39:35;3.20;;;1.77;;
6282;SDS011;3174;53.486;9.568;2022-08-27T13:42:05;3.85;;;1.33;;
6282;SDS011;3174;53.486;9.568;2022-08-27T13:44:39;3.72;;;1.13;;
6282;SDS011;3174;53.486;9.568;2022-08-27T13:47:14;3.85;;;1.40;;
6282;SDS011;3174;53.486;9.568;2022-08-27T13:49:45;5.03;;;1.10;;
6282;SDS011;3174;53.486;9.568;2022-08-27T13:52:17;6.75;;;1.42;;
6282;SDS011;3174;53.486;9.568;2022-08-27T13:54:52;6.25;;;1.40;;
6282;SDS011;3174;53.486;9.568;2022-08-27T13:57:26;3.63;;;1.30;;
6282;SDS011;3174;53.486;9.568;2022-08-27T14:00:08;6.45;;;1.35;;
6282;SDS011;3174;53.486;9.568;2022-08-27T14:02:37;5.13;;;1.48;;
6282;SDS011;3174;53.486;9.568;2022-08-27T14:05:12;6.38;;;1.40;;
6282;SDS011;3174;53.486;9.568;2022-08-27T14:07:43;3.42;;;1.17;;
6282;SDS011;3174;53.486;9.568;2022-08-27T14:10:24;2.92;;;1.10;;
6282;SDS011;3174;53.486;9.568;2022-08-27T14:13:00;2.60;;;1.40;;
6282;SDS011;3174;53.486;9.568;2022-08-27T14:15:33;3.22;;;1.40;;
6282;SDS011;3174;53.486;9.568;2022-08-27T14:18:19;2.97;;;1.27;;
6282;SDS011;3174;53.486;9.568;2022-08-27T14:21:08;4.90;;;1.60;;
6282;SDS011;3174;53.486;9.568;2022-08-27T14:23:37;3.25;;;1.13;;
6282;SDS011;3174;53.486;9.568;2022-08-27T14:26:06;3.00;;;1.30;;
6282;SDS011;3174;53.486;9.568;2022-08-27T14:28:35;3.15;;;1.08;;
6282;SDS011;3174;53.486;9.568;2022-08-27T14:31:06;3.65;;;1.27;;
6282;SDS011;3174;53.486;9.568;2022-08-27T14:33:34;2.10;;;1.05;;
6282;SDS011;3174;53.486;9.568;2022-08-27T14:36:02;1.98;;;1.20;;
6282;SDS011;3174;53.486;9.568;2022-08-27T14:38:31;3.75;;;1.10;;
6282;SDS011;3174;53.486;9.568;2022-08-27T14:40:59;2.30;;;1.50;;
6282;SDS011;3174;53.486;9.568;2022-08-27T14:43:32;4.30;;;1.35;;
6282;SDS011;3174;53.486;9.568;2022-08-27T14:46:01;5.55;;;1.80;;
6282;SDS011;3174;53.486;9.568;2022-08-27T14:48:31;4.32;;;1.60;;
6282;SDS011;3174;53.486;9.568;2022-08-27T14:51:05;7.55;;;1.98;;
6282;SDS011;3174;53.486;9.568;2022-08-27T14:53:39;4.18;;;1.42;;
6282;SDS011;3174;53.486;9.568;2022-08-27T14:56:07;3.13;;;1.27;;
6282;SDS011;3174;53.486;9.568;2022-08-27T14:58:36;3.70;;;1.35;;
6282;SDS011;3174;53.486;9.568;2022-08-27T15:01:07;4.57;;;1.50;;
6282;SDS011;3174;53.486;9.568;2022-08-27T15:03:37;4.88;;;1.30;;
6282;SDS011;3174;53.486;9.568;2022-08-27T15:06:06;4.40;;;1.58;;
6282;SDS011;3174;53.486;9.568;2022-08-27T15:08:47;3.63;;;1.30;;
6282;SDS011;3174;53.486;9.568;2022-08-27T15:11:16;4.35;;;1.58;;
6282;SDS011;3174;53.486;9.568;2022-08-27T15:13:46;5.68;;;1.42;;
6282;SDS011;3174;53.486;9.568;2022-08-27T15:16:25;6.28;;;1.20;;
6282;SDS011;3174;53.486;9.568;2022-08-27T15:18:58;5.72;;;1.40;;
6282;SDS011;3174;53.486;9.568;2022-08-27T15:21:27;6.90;;;1.85;;
6282;SDS011;3174;53.486;9.568;2022-08-27T15:23:57;1.70;;;1.00;;
6282;SDS011;3174;53.486;9.568;2022-08-27T15:26:29;3.83;;;1.52;;
6282;SDS011;3174;53.486;9.568;2022-08-27T15:28:59;4.38;;;1.80;;
6282;SDS011;3174;53.486;9.568;2022-08-27T15:31:32;4.18;;;1.42;;
6282;SDS011;3174;53.486;9.568;2022-08-27T15:34:01;5.55;;;1.48;;
6282;SDS011;3174;53.486;9.568;2022-08-27T15:36:35;3.17;;;1.50;;
6282;SDS011;3174;53.486;9.568;2022-08-27T15:39:06;6.55;;;1.75;;
6282;SDS011;3174;53.486;9.568;2022-08-27T15:41:35;5.97;;;1.52;;
6282;SDS011;3174;53.486;9.568;2022-08-27T15:44:26;4.28;;;1.13;;
6282;SDS011;3174;53.486;9.568;2022-08-27T15:46:54;3.70;;;1.42;;
6282;SDS011;3174;53.486;9.568;2022-08-27T15:49:28;5.28;;;1.60;;